Time;durP1;ratioP1;P1;durP2;ratioP2;P2;SDS_P1;SDS_P2;PMS_P1;PMS_P2;Temp;Humidity;BMP_temperature;BMP_pressure;BME280_temperature;BME280_humidity;BME280_pressure;Samples;Min_cycle;Max_cycle;Signal;HPM_P1;HPM_P2
2021/11/03 00:01:56;;;;;;;0.20;0.20;;;8.40;99.90;;;;;;5036491;28;20848;-68
2021/11/03 00:04:21;;;;;;;0.20;0.20;;;8.40;99.90;;;;;;5036354;28;20173;-68
2021/11/03 00:06:47;;;;;;;0.20;0.20;;;8.50;99.90;;;;;;5035848;28;20173;-68
2021/11/03 00:09:13;;;;;;;0.20;0.20;;;8.50;99.90;;;;;;5035570;28;20213;-68
2021/11/03 00:11:39;;;;;;;0.30;0.30;;;8.40;99.90;;;;;;5018398;28;20623;-68
2021/11/03 00:14:05;;;;;;;0.20;0.20;;;8.40;99.90;;;;;;5035670;28;20292;-68
2021/11/03 00:16:31;;;;;;;0.20;0.20;;;8.30;99.90;;;;;;5035757;28;20173;-68
2021/11/03 00:18:56;;;;;;;0.20;0.17;;;8.30;99.90;;;;;;5036481;28;20220;-68
2021/11/03 00:21:22;;;;;;;0.20;0.10;;;8.40;99.90;;;;;;5036976;28;20223;-68
2021/11/03 00:23:47;;;;;;;0.27;0.20;;;8.40;99.90;;;;;;5018587;28;20231;-68
2021/11/03 00:26:13;;;;;;;0.20;0.20;;;8.30;99.90;;;;;;5035772;28;20315;-70
2021/11/03 00:28:39;;;;;;;0.20;0.20;;;8.40;99.90;;;;;;5035095;28;20182;-70
2021/11/03 00:31:04;;;;;;;0.20;0.20;;;8.50;99.90;;;;;;5036093;28;20181;-70
2021/11/03 00:33:32;;;;;;;0.20;0.20;;;8.40;99.90;;;;;;5034676;28;20204;-70
2021/11/03 00:35:59;;;;;;;0.20;0.20;;;8.40;99.90;;;;;;5035253;28;20178;-70
2021/11/03 00:38:24;;;;;;;0.20;0.20;;;8.30;99.90;;;;;;5033329;28;20201;-70
2021/11/03 00:40:51;;;;;;;0.20;0.20;;;8.40;99.90;;;;;;5035139;28;20261;-70
2021/11/03 00:43:18;;;;;;;0.20;0.10;;;8.20;99.90;;;;;;5035123;28;20177;-70
2021/11/03 00:45:44;;;;;;;0.20;0.20;;;8.10;99.90;;;;;;5035261;28;20191;-69
2021/11/03 00:48:10;;;;;;;0.20;0.20;;;8.10;99.90;;;;;;5017265;28;20626;-69
2021/11/03 00:50:36;;;;;;;0.20;0.20;;;8.00;99.90;;;;;;5035209;28;20192;-67
2021/11/03 00:53:01;;;;;;;1.70;1.03;;;8.00;99.90;;;;;;5035048;28;20622;-68
2021/11/03 00:55:27;;;;;;;0.20;0.20;;;8.10;99.90;;;;;;5035135;28;20276;-68
2021/11/03 00:57:53;;;;;;;0.20;0.20;;;8.10;99.90;;;;;;5034849;28;20183;-68
2021/11/03 01:00:20;;;;;;;0.20;0.17;;;8.10;99.90;;;;;;5034877;28;20431;-70
2021/11/03 01:02:47;;;;;;;0.20;0.20;;;8.10;99.90;;;;;;5035382;28;20615;-68
2021/11/03 01:05:14;;;;;;;0.20;0.10;;;8.20;99.90;;;;;;5034820;28;20256;-70
2021/11/03 01:07:41;;;;;;;0.20;0.10;;;8.40;99.90;;;;;;5035066;28;20322;-67
2021/11/03 01:10:07;;;;;;;0.20;0.20;;;8.50;99.90;;;;;;5017029;28;20179;-68
2021/11/03 01:12:34;;;;;;;0.20;0.20;;;8.50;99.90;;;;;;5034563;28;20191;-68
2021/11/03 01:15:00;;;;;;;0.20;0.20;;;8.70;99.90;;;;;;5034499;28;20329;-68
2021/11/03 01:17:26;;;;;;;2.78;2.67;;;8.70;99.90;;;;;;5034386;28;20193;-68
2021/11/03 01:19:51;;;;;;;0.20;0.20;;;8.80;99.90;;;;;;5034226;28;20213;-68
2021/11/03 01:22:17;;;;;;;0.20;0.20;;;8.80;99.90;;;;;;5034420;28;20216;-70
2021/11/03 01:24:43;;;;;;;2.00;1.90;;;8.90;99.90;;;;;;5034269;28;20184;-70
2021/11/03 01:27:08;;;;;;;0.20;0.20;;;8.90;99.90;;;;;;5034316;28;20184;-69
2021/11/03 01:29:34;;;;;;;0.20;0.20;;;8.80;99.90;;;;;;5034059;28;20216;-68
2021/11/03 01:32:00;;;;;;;0.20;0.10;;;8.80;99.90;;;;;;5034226;28;20683;-68
2021/11/03 01:34:25;;;;;;;0.20;0.20;;;8.90;99.90;;;;;;5034218;28;20195;-68
2021/11/03 01:36:51;;;;;;;0.20;0.10;;;8.90;99.90;;;;;;5034141;28;20215;-68
2021/11/03 01:39:16;;;;;;;0.20;0.20;;;9.00;99.90;;;;;;5016449;28;20215;-68
2021/11/03 01:41:42;;;;;;;0.20;0.20;;;9.00;99.90;;;;;;5034056;28;20664;-68
2021/11/03 01:44:14;;;;;;;0.20;0.20;;;9.10;99.90;;;;;;5033452;28;20256;-67
2021/11/03 01:47:16;;;;;;;0.20;0.20;;;9.00;99.90;;;;;;5033699;28;20267;-70
2021/11/03 01:49:41;;;;;;;0.20;0.20;;;8.90;99.90;;;;;;5033519;28;20498;-70
2021/11/03 01:52:13;;;;;;;0.60;0.60;;;8.70;99.90;;;;;;5016618;28;20202;-70
2021/11/03 01:54:43;;;;;;;0.20;0.20;;;8.40;99.90;;;;;;5033731;28;20185;-70
2021/11/03 01:57:14;;;;;;;0.20;0.20;;;8.40;99.90;;;;;;5033817;28;20188;-70
2021/11/03 01:59:54;;;;;;;0.20;0.20;;;8.30;99.90;;;;;;5033389;28;20217;-70
2021/11/03 02:02:21;;;;;;;0.70;0.70;;;8.40;99.90;;;;;;5033838;28;20178;-68
2021/11/03 02:04:47;;;;;;;0.20;0.20;;;8.30;99.90;;;;;;5016300;28;20189;-68
2021/11/03 02:07:18;;;;;;;0.38;0.38;;;8.20;99.90;;;;;;5033536;28;20203;-68
2021/11/03 02:09:44;;;;;;;0.20;0.20;;;8.10;99.90;;;;;;5016245;28;20182;-68
2021/11/03 02:12:18;;;;;;;1.20;1.15;;;8.30;99.90;;;;;;5033622;28;20247;-68
2021/11/03 02:14:44;;;;;;;0.20;0.20;;;8.30;99.90;;;;;;5033566;28;20193;-68
2021/11/03 02:17:10;;;;;;;0.30;0.28;;;8.30;99.90;;;;;;5033601;28;20196;-68
2021/11/03 02:19:36;;;;;;;0.70;0.70;;;8.20;99.90;;;;;;5033197;28;20212;-70
2021/11/03 02:22:06;;;;;;;0.50;0.50;;;8.20;99.90;;;;;;5033474;28;20178;-70
2021/11/03 02:24:41;;;;;;;3.60;1.38;;;8.30;99.90;;;;;;5033484;28;20412;-70
2021/11/03 02:27:07;;;;;;;0.20;0.20;;;8.30;99.90;;;;;;5033556;28;20539;-68
2021/11/03 02:29:33;;;;;;;0.20;0.20;;;8.40;99.90;;;;;;5032870;28;20540;-67
2021/11/03 02:32:16;;;;;;;0.30;0.30;;;8.50;99.90;;;;;;5033446;28;20618;-67
2021/11/03 02:34:41;;;;;;;0.20;0.20;;;8.50;99.90;;;;;;5033373;28;20431;-67
2021/11/03 02:37:26;;;;;;;0.20;0.20;;;8.50;99.90;;;;;;5033419;28;20183;-68
2021/11/03 02:39:56;;;;;;;0.40;0.40;;;8.50;99.90;;;;;;5033123;28;20216;-67
2021/11/03 02:42:23;;;;;;;0.20;0.20;;;8.20;99.90;;;;;;5033360;28;20184;-66
2021/11/03 02:44:50;;;;;;;0.30;0.30;;;8.10;99.90;;;;;;5033293;28;20178;-66
2021/11/03 02:47:16;;;;;;;0.20;0.20;;;8.00;99.90;;;;;;5033254;28;20192;-66
2021/11/03 02:49:41;;;;;;;0.20;0.20;;;8.20;99.90;;;;;;5015933;28;20193;-66
2021/11/03 02:52:19;;;;;;;0.20;0.20;;;8.10;99.90;;;;;;5033391;28;20599;-68
2021/11/03 02:54:45;;;;;;;0.70;0.70;;;8.30;99.90;;;;;;5034036;28;20192;-68
2021/11/03 02:57:10;;;;;;;0.20;0.20;;;8.10;99.90;;;;;;5018676;28;20196;-66
2021/11/03 02:59:36;;;;;;;2.83;2.63;;;7.70;99.90;;;;;;5019224;28;20262;-66
2021/11/03 03:02:05;;;;;;;0.20;0.20;;;7.70;99.90;;;;;;5036957;28;20178;-66
2021/11/03 03:04:34;;;;;;;0.20;0.20;;;7.70;99.90;;;;;;5019539;28;20554;-66
2021/11/03 03:07:00;;;;;;;0.20;0.20;;;7.80;99.90;;;;;;5036790;28;20193;-66
2021/11/03 03:09:26;;;;;;;0.57;0.57;;;7.90;99.90;;;;;;5036644;28;20185;-66
2021/11/03 03:11:56;;;;;;;0.20;0.20;;;7.60;99.90;;;;;;5036789;28;20239;-66
2021/11/03 03:14:24;;;;;;;0.20;0.20;;;7.60;99.90;;;;;;5019024;28;20236;-66
2021/11/03 03:16:50;;;;;;;0.35;0.35;;;7.80;99.90;;;;;;5036740;28;20582;-66
2021/11/03 03:19:16;;;;;;;0.40;0.40;;;8.00;99.90;;;;;;5036438;28;20254;-66
2021/11/03 03:21:42;;;;;;;0.20;0.20;;;7.90;99.90;;;;;;5036764;28;20170;-68
2021/11/03 03:24:10;;;;;;;0.20;0.20;;;7.80;99.90;;;;;;5036899;28;20178;-68
2021/11/03 03:26:36;;;;;;;0.30;0.20;;;7.90;99.90;;;;;;5036572;28;20424;-68
2021/11/03 03:29:02;;;;;;;0.20;0.10;;;7.90;99.90;;;;;;5036105;28;20182;-69
2021/11/03 03:31:29;;;;;;;0.20;0.20;;;7.80;99.90;;;;;;5019072;28;20181;-69
2021/11/03 03:33:57;;;;;;;0.20;0.20;;;7.80;99.90;;;;;;5036546;28;20265;-67
2021/11/03 03:36:23;;;;;;;0.20;0.20;;;7.70;99.90;;;;;;5036416;28;20260;-67
2021/11/03 03:38:49;;;;;;;0.20;0.17;;;7.60;99.90;;;;;;5036072;28;20292;-68
2021/11/03 03:41:16;;;;;;;0.20;0.20;;;7.80;99.90;;;;;;5019050;28;20443;-66
2021/11/03 03:43:42;;;;;;;0.20;0.20;;;7.80;99.90;;;;;;5036141;28;20657;-68
2021/11/03 03:46:08;;;;;;;0.85;0.85;;;7.80;99.90;;;;;;5036229;28;20672;-68
2021/11/03 03:48:34;;;;;;;0.70;0.50;;;7.90;99.90;;;;;;5035861;28;20268;-67
2021/11/03 03:51:00;;;;;;;0.20;0.20;;;8.00;99.90;;;;;;5036072;28;20220;-68
2021/11/03 03:53:26;;;;;;;0.20;0.20;;;8.00;99.90;;;;;;5036017;28;20376;-68
2021/11/03 03:55:52;;;;;;;0.20;0.20;;;7.90;99.90;;;;;;5036086;28;20212;-68
2021/11/03 03:58:20;;;;;;;0.20;0.20;;;7.80;99.90;;;;;;5018106;28;20298;-68
2021/11/03 04:00:48;;;;;;;0.20;0.20;;;7.50;99.90;;;;;;5035835;28;20174;-67
2021/11/03 04:03:13;;;;;;;0.70;0.47;;;7.40;99.90;;;;;;5018343;28;20649;-67
2021/11/03 04:05:39;;;;;;;0.30;0.30;;;7.30;99.90;;;;;;5035768;28;20264;-67
2021/11/03 04:08:05;;;;;;;0.20;0.20;;;7.20;99.90;;;;;;5017132;28;20213;-67
2021/11/03 04:10:31;;;;;;;0.20;0.20;;;7.20;99.90;;;;;;5035774;28;20236;-69
2021/11/03 04:12:56;;;;;;;0.20;0.20;;;7.30;99.90;;;;;;5035474;28;20235;-68
2021/11/03 04:15:22;;;;;;;0.20;0.20;;;7.30;99.90;;;;;;5035683;28;20212;-68
2021/11/03 04:17:48;;;;;;;0.20;0.20;;;7.40;99.90;;;;;;5035538;28;20235;-68
2021/11/03 04:20:15;;;;;;;0.20;0.20;;;7.40;99.90;;;;;;5035291;28;20188;-68
2021/11/03 04:22:41;;;;;;;0.90;0.90;;;7.40;99.90;;;;;;5035570;28;20181;-68
2021/11/03 04:25:08;;;;;;;0.20;0.20;;;7.50;99.90;;;;;;5017975;28;20192;-68
2021/11/03 04:27:34;;;;;;;0.40;0.40;;;7.50;99.90;;;;;;5035383;28;20420;-68
2021/11/03 04:29:59;;;;;;;0.40;0.40;;;7.50;99.90;;;;;;5035234;28;20182;-68
2021/11/03 04:32:25;;;;;;;0.30;0.20;;;7.50;99.90;;;;;;5035325;28;20182;-68
2021/11/03 04:34:50;;;;;;;0.30;0.20;;;7.60;99.90;;;;;;5035275;28;20267;-68
2021/11/03 04:37:16;;;;;;;0.63;0.63;;;7.50;99.90;;;;;;5018081;28;20619;-67
2021/11/03 04:39:42;;;;;;;0.20;0.20;;;7.40;99.90;;;;;;5035095;28;20201;-68
2021/11/03 04:42:07;;;;;;;2.20;0.73;;;7.40;99.90;;;;;;5018243;28;20526;-67
2021/11/03 04:44:33;;;;;;;0.20;0.20;;;7.50;99.90;;;;;;5035119;28;20811;-67
2021/11/03 04:46:59;;;;;;;0.50;0.50;;;7.50;99.90;;;;;;5017668;28;20177;-67
2021/11/03 04:49:25;;;;;;;0.20;0.20;;;7.50;99.90;;;;;;5035485;28;20185;-66
2021/11/03 04:51:51;;;;;;;0.20;0.20;;;7.40;99.90;;;;;;5036077;28;20229;-67
2021/11/03 04:54:16;;;;;;;0.30;0.30;;;7.50;99.90;;;;;;5018661;28;20217;-67
2021/11/03 04:56:42;;;;;;;0.20;0.20;;;7.50;99.90;;;;;;5035315;28;20186;-66
2021/11/03 04:59:08;;;;;;;0.43;0.43;;;7.70;99.90;;;;;;5017098;28;20300;-66
2021/11/03 05:01:34;;;;;;;1.50;0.90;;;7.60;99.90;;;;;;5035530;28;20181;-66
2021/11/03 05:04:00;;;;;;;0.60;0.60;;;7.50;99.90;;;;;;5017385;28;20188;-68
2021/11/03 05:06:28;;;;;;;0.20;0.20;;;7.60;99.90;;;;;;5034519;28;20622;-66
2021/11/03 05:08:55;;;;;;;0.43;0.43;;;7.60;99.90;;;;;;5017005;28;20193;-66
2021/11/03 05:11:21;;;;;;;0.20;0.20;;;7.60;99.90;;;;;;5034602;28;20186;-66
2021/11/03 05:13:50;;;;;;;0.30;0.20;;;7.60;99.90;;;;;;5034394;28;20298;-66
2021/11/03 05:16:20;;;;;;;0.20;0.20;;;7.50;99.90;;;;;;5017248;28;20182;-66
2021/11/03 05:18:46;;;;;;;0.20;0.20;;;7.70;99.90;;;;;;5034213;28;20224;-67
2021/11/03 05:21:12;;;;;;;0.20;0.20;;;7.90;99.90;;;;;;5034570;28;20509;-67
2021/11/03 05:23:39;;;;;;;0.20;0.20;;;8.10;99.90;;;;;;5034237;28;20177;-67
2021/11/03 05:26:05;;;;;;;0.20;0.20;;;8.10;99.90;;;;;;5034335;28;20272;-67
2021/11/03 05:28:31;;;;;;;0.20;0.20;;;8.10;99.90;;;;;;5016678;28;20213;-68
2021/11/03 05:30:57;;;;;;;0.20;0.20;;;8.10;99.90;;;;;;5034243;28;20188;-68
2021/11/03 05:33:22;;;;;;;0.30;0.20;;;7.90;99.90;;;;;;5034110;28;20496;-68
2021/11/03 05:35:48;;;;;;;1.27;1.20;;;7.80;99.90;;;;;;5034168;28;20185;-68
2021/11/03 05:38:14;;;;;;;0.20;0.20;;;7.60;99.90;;;;;;5033947;28;20569;-66
2021/11/03 05:40:40;;;;;;;0.43;0.43;;;7.40;99.90;;;;;;5034137;28;20594;-67
2021/11/03 05:43:06;;;;;;;0.30;0.30;;;7.30;99.90;;;;;;5034017;28;20219;-67
2021/11/03 05:45:32;;;;;;;0.50;0.50;;;7.30;99.90;;;;;;5016448;28;20544;-67
2021/11/03 05:47:57;;;;;;;0.20;0.20;;;7.20;99.90;;;;;;5033683;28;20516;-67
2021/11/03 05:50:28;;;;;;;0.30;0.30;;;7.30;99.90;;;;;;5033798;28;20173;-67
2021/11/03 05:52:54;;;;;;;2.08;2.05;;;7.30;99.90;;;;;;5034017;28;20732;-67
2021/11/03 05:55:20;;;;;;;0.20;0.20;;;7.10;99.90;;;;;;5034142;28;20268;-65
2021/11/03 05:57:46;;;;;;;0.30;0.20;;;7.00;99.90;;;;;;5033912;28;20181;-65
2021/11/03 06:00:29;;;;;;;0.20;0.20;;;6.90;99.90;;;;;;5016226;28;20220;-65
2021/11/03 06:02:54;;;;;;;0.20;0.20;;;6.80;99.90;;;;;;5033858;28;20614;-65
2021/11/03 06:05:21;;;;;;;0.20;0.20;;;6.70;99.90;;;;;;5016043;28;20187;-65
2021/11/03 06:07:54;;;;;;;0.30;0.20;;;6.70;99.90;;;;;;5033694;28;20686;-65
2021/11/03 06:10:29;;;;;;;0.20;0.20;;;6.60;99.90;;;;;;5015920;28;20178;-65
2021/11/03 06:12:55;;;;;;;1.35;0.73;;;6.60;99.90;;;;;;5000199;28;20193;-66
2021/11/03 06:15:22;;;;;;;0.20;0.20;;;6.50;99.90;;;;;;5033616;28;20243;-66
2021/11/03 06:17:49;;;;;;;0.30;0.30;;;6.40;99.90;;;;;;5033357;28;20173;-67
2021/11/03 06:20:15;;;;;;;0.20;0.20;;;6.40;99.90;;;;;;5033265;28;20188;-66
2021/11/03 06:22:40;;;;;;;0.30;0.20;;;6.30;99.90;;;;;;5016117;28;20177;-66
2021/11/03 06:25:07;;;;;;;2.50;2.23;;;6.30;99.90;;;;;;5030166;28;20478;-66
2021/11/03 06:27:33;;;;;;;0.30;0.20;;;6.30;99.90;;;;;;5049740;28;20455;-67
2021/11/03 06:29:59;;;;;;;0.20;0.20;;;6.40;99.90;;;;;;5053575;28;20181;-66
2021/11/03 06:32:25;;;;;;;0.20;0.20;;;6.40;99.90;;;;;;5055463;28;20203;-66
2021/11/03 06:34:50;;;;;;;1.30;1.17;;;6.40;99.90;;;;;;5020340;28;20197;-67
2021/11/03 06:37:16;;;;;;;0.30;0.30;;;6.30;99.90;;;;;;5028424;28;20499;-66
2021/11/03 06:39:41;;;;;;;2.53;2.43;;;6.40;99.90;;;;;;5034367;28;20224;-69
2021/11/03 06:42:07;;;;;;;0.70;0.70;;;6.50;99.90;;;;;;5053437;28;20189;-65
2021/11/03 06:44:33;;;;;;;0.30;0.20;;;6.60;99.90;;;;;;5039876;28;20181;-65
2021/11/03 06:46:59;;;;;;;4.60;4.33;;;6.60;99.90;;;;;;5057664;28;20252;-65
2021/11/03 06:49:24;;;;;;;0.20;0.20;;;6.70;99.90;;;;;;5057113;28;20267;-67
2021/11/03 06:51:50;;;;;;;0.20;0.20;;;6.80;99.90;;;;;;5057372;28;20177;-66
2021/11/03 06:54:21;;;;;;;0.30;0.20;;;6.80;99.90;;;;;;5057444;28;20590;-66
2021/11/03 06:56:46;;;;;;;0.20;0.20;;;6.80;99.90;;;;;;5039603;28;20190;-66
2021/11/03 06:59:12;;;;;;;0.20;0.20;;;6.90;99.90;;;;;;5055542;28;20295;-66
2021/11/03 07:01:37;;;;;;;0.83;0.83;;;7.00;99.90;;;;;;5037447;28;20261;-66
2021/11/03 07:04:04;;;;;;;0.20;0.20;;;7.00;99.90;;;;;;5019442;28;20177;-66
2021/11/03 07:06:29;;;;;;;9.38;8.38;;;6.90;99.90;;;;;;5017590;28;20213;-65
2021/11/03 07:08:57;;;;;;;1.90;1.20;;;7.00;99.90;;;;;;5036702;28;20243;-65
2021/11/03 07:11:24;;;;;;;0.50;0.50;;;7.00;99.90;;;;;;5037142;28;20178;-70
2021/11/03 07:13:50;;;;;;;1.42;0.82;;;7.00;99.90;;;;;;5036812;28;20193;-67
2021/11/03 07:16:16;;;;;;;0.20;0.20;;;7.10;99.90;;;;;;5036739;28;20200;-68
2021/11/03 07:18:41;;;;;;;1.33;1.30;;;7.00;99.90;;;;;;5036415;28;20558;-69
2021/11/03 07:21:07;;;;;;;0.37;0.33;;;7.10;99.90;;;;;;5035964;28;20220;-67
2021/11/03 07:23:32;;;;;;;0.20;0.20;;;7.10;99.90;;;;;;5018860;28;20170;-68
2021/11/03 07:25:59;;;;;;;1.43;1.30;;;7.10;99.90;;;;;;5039872;28;20300;-68
2021/11/03 07:28:26;;;;;;;0.20;0.20;;;7.20;99.90;;;;;;5040219;28;20174;-68
2021/11/03 07:30:56;;;;;;;0.20;0.20;;;7.10;99.90;;;;;;5024104;28;20235;-68
2021/11/03 07:33:22;;;;;;;0.80;0.80;;;7.10;99.90;;;;;;5037496;28;20189;-67
2021/11/03 07:35:48;;;;;;;0.30;0.30;;;7.00;99.90;;;;;;5037014;28;20634;-68
2021/11/03 07:38:14;;;;;;;0.38;0.35;;;7.00;99.90;;;;;;5036458;28;20251;-69
2021/11/03 07:40:44;;;;;;;0.60;0.40;;;7.10;99.90;;;;;;5036624;28;20209;-67
2021/11/03 07:43:13;;;;;;;0.20;0.20;;;7.10;99.90;;;;;;5035140;28;20797;-68
2021/11/03 07:45:39;;;;;;;0.20;0.20;;;7.30;99.90;;;;;;5018575;28;20615;-67
2021/11/03 07:48:07;;;;;;;0.20;0.20;;;7.30;99.90;;;;;;5036208;28;20315;-68
2021/11/03 07:50:37;;;;;;;0.30;0.20;;;7.30;99.90;;;;;;5036608;28;20182;-67
2021/11/03 07:53:03;;;;;;;1.20;1.20;;;7.30;99.90;;;;;;5019007;28;20182;-67
2021/11/03 07:55:29;;;;;;;0.73;0.73;;;7.20;99.90;;;;;;5018795;28;20185;-67
2021/11/03 07:57:55;;;;;;;0.50;0.50;;;7.20;99.90;;;;;;5036253;28;20180;-67
2021/11/03 08:00:34;;;;;;;0.30;0.30;;;7.20;99.90;;;;;;5036210;28;20420;-67
2021/11/03 08:02:59;;;;;;;0.20;0.20;;;7.40;99.90;;;;;;5018606;28;20177;-67
2021/11/03 08:05:28;;;;;;;0.30;0.30;;;7.50;99.90;;;;;;5018568;28;20265;-67
2021/11/03 08:07:59;;;;;;;0.50;0.50;;;7.60;99.90;;;;;;5035981;28;20173;-66
2021/11/03 08:10:25;;;;;;;0.88;0.77;;;8.00;99.90;;;;;;5036309;28;20184;-69
2021/11/03 08:12:54;;;;;;;2.47;2.38;;;8.10;99.90;;;;;;5036001;28;20259;-65
2021/11/03 08:15:21;;;;;;;1.85;1.15;;;8.40;99.90;;;;;;5018290;28;20173;-64
2021/11/03 08:17:47;;;;;;;0.20;0.20;;;8.70;99.90;;;;;;5035952;28;20243;-64
2021/11/03 08:20:18;;;;;;;0.30;0.20;;;8.70;99.90;;;;;;5035600;28;20594;-65
2021/11/03 08:22:43;;;;;;;2.05;1.95;;;8.80;99.90;;;;;;5035803;28;20173;-64
2021/11/03 08:25:09;;;;;;;0.30;0.30;;;8.70;99.90;;;;;;5018461;28;20177;-65
2021/11/03 08:27:35;;;;;;;0.63;0.57;;;8.80;99.90;;;;;;5035724;28;20184;-65
2021/11/03 08:30:05;;;;;;;4.75;3.63;;;8.80;99.90;;;;;;5035905;28;20195;-66
2021/11/03 08:32:35;;;;;;;1.33;1.20;;;8.80;99.90;;;;;;5018086;28;20219;-68
2021/11/03 08:35:02;;;;;;;0.93;0.93;;;8.80;99.90;;;;;;5036026;28;20181;-68
2021/11/03 08:37:33;;;;;;;0.20;0.20;;;8.80;99.90;;;;;;5017659;28;20192;-68
2021/11/03 08:40:00;;;;;;;0.20;0.10;;;9.00;99.90;;;;;;5017640;28;20213;-67
2021/11/03 08:42:26;;;;;;;0.98;0.70;;;9.00;99.90;;;;;;5017830;28;20182;-67
2021/11/03 08:44:52;;;;;;;0.30;0.30;;;8.90;99.90;;;;;;5035538;28;20267;-67
2021/11/03 08:47:18;;;;;;;0.20;0.20;;;8.70;99.90;;;;;;5018142;28;20189;-68
2021/11/03 08:49:44;;;;;;;0.73;0.73;;;8.90;99.90;;;;;;5035579;28;20184;-67
2021/11/03 08:52:10;;;;;;;0.20;0.20;;;8.90;99.90;;;;;;5035404;28;20181;-67
2021/11/03 08:54:40;;;;;;;3.83;1.95;;;8.90;99.90;;;;;;5017229;28;20242;-67
2021/11/03 08:57:07;;;;;;;2.90;2.75;;;8.60;99.90;;;;;;5035265;28;20307;-66
2021/11/03 08:59:33;;;;;;;0.90;0.80;;;8.50;99.90;;;;;;5034768;28;20205;-66
2021/11/03 09:01:58;;;;;;;9.53;2.10;;;8.40;99.90;;;;;;5035002;28;20177;-66
2021/11/03 09:04:24;;;;;;;5.50;0.97;;;8.40;99.90;;;;;;5017481;28;20207;-68
2021/11/03 09:06:50;;;;;;;0.30;0.13;;;8.60;99.90;;;;;;5017432;28;20181;-67
2021/11/03 09:09:15;;;;;;;9.77;3.60;;;9.10;99.90;;;;;;5034700;28;20185;-67
2021/11/03 09:11:41;;;;;;;4.20;3.03;;;9.20;99.90;;;;;;5034942;28;20535;-67
2021/11/03 09:14:07;;;;;;;3.05;2.92;;;9.30;99.90;;;;;;5034396;28;20888;-67
2021/11/03 09:16:33;;;;;;;1.07;0.97;;;9.40;99.90;;;;;;5017206;28;20182;-67
2021/11/03 09:18:59;;;;;;;0.30;0.30;;;9.50;99.90;;;;;;5016992;28;20209;-67
2021/11/03 09:21:25;;;;;;;5.90;4.47;;;9.50;99.90;;;;;;5035559;28;20424;-67
2021/11/03 09:23:52;;;;;;;2.83;1.53;;;9.80;99.90;;;;;;5036342;28;20246;-67
2021/11/03 09:26:20;;;;;;;0.40;0.40;;;9.70;99.90;;;;;;5017657;28;20192;-68
2021/11/03 09:28:46;;;;;;;4.50;2.50;;;9.70;68.60;;;;;;5034763;28;20185;-69
2021/11/03 09:31:12;;;;;;;0.30;0.20;;;9.50;74.10;;;;;;5035074;28;20176;-69
2021/11/03 09:33:39;;;;;;;5.63;2.90;;;9.70;99.90;;;;;;5034694;28;20196;-68
2021/11/03 09:36:07;;;;;;;0.20;0.10;;;9.70;95.00;;;;;;5034633;28;20434;-68
2021/11/03 09:38:33;;;;;;;1.77;1.67;;;9.80;99.90;;;;;;5034551;28;20217;-69
2021/11/03 09:41:15;;;;;;;4.90;3.70;;;9.90;99.90;;;;;;5034602;28;20170;-66
2021/11/03 09:44:09;;;;;;;4.13;0.85;;;10.40;31.10;;;;;;5034578;28;20212;-66
2021/11/03 09:46:41;;;;;;;1.10;0.75;;;10.50;1.00;;;;;;5034574;28;20257;-68
2021/11/03 09:49:19;;;;;;;1.55;1.45;;;10.50;1.00;;;;;;5034158;28;20181;-68
2021/11/03 09:51:52;;;;;;;0.30;0.30;;;10.10;1.00;;;;;;5033797;28;20713;-68
2021/11/03 09:54:29;;;;;;;0.30;0.20;;;10.20;1.00;;;;;;5016276;28;20196;-68
2021/11/03 09:57:27;;;;;;;2.10;1.95;;;10.40;1.00;;;;;;5033521;28;20235;-67
2021/11/03 10:00:11;;;;;;;9.57;2.88;;;10.40;1.00;;;;;;5016034;28;20212;-68
2021/11/03 10:03:10;;;;;;;3.45;2.83;;;10.30;1.00;;;;;;5016341;28;20184;-68
2021/11/03 10:06:03;;;;;;;0.60;0.60;;;9.80;1.00;;;;;;5015199;28;20192;-68
2021/11/03 10:08:31;;;;;;;0.20;0.20;;;9.90;29.10;;;;;;5015978;28;20195;-68
2021/11/03 10:10:56;;;;;;;1.13;1.13;;;9.90;30.90;;;;;;5016158;28;20243;-67
2021/11/03 10:13:27;;;;;;;0.70;0.70;;;10.20;43.60;;;;;;5015895;28;20209;-66
2021/11/03 10:16:13;;;;;;;0.30;0.20;;;10.20;1.00;;;;;;5033361;28;20188;-66
2021/11/03 10:18:57;;;;;;;1.33;1.23;;;10.40;1.00;;;;;;5025116;28;20588;-66
2021/11/03 10:21:32;;;;;;;0.30;0.20;;;10.90;1.00;;;;;;5013808;28;20174;-66
2021/11/03 10:24:05;;;;;;;2.45;1.83;;;11.20;1.00;;;;;;5025830;28;20205;-65
2021/11/03 10:26:48;;;;;;;0.40;0.40;;;11.00;1.00;;;;;;5030402;28;20650;-68
2021/11/03 10:29:34;;;;;;;0.30;0.10;;;10.60;1.00;;;;;;5026465;28;20211;-69
2021/11/03 10:32:24;;;;;;;0.30;0.20;;;10.60;1.00;;;;;;5016565;28;20193;-70
2021/11/03 10:35:21;;;;;;;4.40;1.38;;;10.40;1.00;;;;;;5032010;28;20614;-67
2021/11/03 10:37:51;;;;;;;0.25;0.10;;;10.10;1.00;;;;;;5016030;28;20185;-69
2021/11/03 10:40:26;;;;;;;0.20;0.10;;;9.90;1.00;;;;;;5032678;28;20650;-69
2021/11/03 10:43:03;;;;;;;0.60;0.60;;;10.20;1.00;;;;;;5014342;28;20266;-69
2021/11/03 10:45:37;;;;;;;0.60;0.60;;;10.30;1.00;;;;;;5031630;28;20675;-68
2021/11/03 10:48:25;;;;;;;0.70;0.40;;;10.50;1.00;;;;;;5030989;28;20184;-68
2021/11/03 10:51:02;;;;;;;0.30;0.20;;;10.70;1.00;;;;;;5013991;28;20528;-69
2021/11/03 10:53:30;;;;;;;2.17;1.80;;;10.30;1.00;;;;;;5013729;28;20220;-69
2021/11/03 10:56:12;;;;;;;3.30;2.08;;;10.20;1.00;;;;;;5014928;28;20178;-68
2021/11/03 10:58:49;;;;;;;2.05;1.77;;;10.10;1.00;;;;;;5033263;28;20564;-68
2021/11/03 11:01:24;;;;;;;0.25;0.20;;;10.20;1.00;;;;;;5034192;28;20178;-68
2021/11/03 11:03:59;;;;;;;0.43;0.43;;;10.40;1.00;;;;;;5033058;28;20188;-68
2021/11/03 11:06:34;;;;;;;1.20;0.95;;;10.60;1.00;;;;;;5033316;28;20169;-68
2021/11/03 11:09:14;;;;;;;1.45;1.42;;;10.90;1.00;;;;;;5032967;28;20437;-68
2021/11/03 11:11:43;;;;;;;1.35;1.20;;;10.80;1.00;;;;;;5033193;28;20623;-68
2021/11/03 11:14:19;;;;;;;4.00;3.70;;;10.50;1.00;;;;;;5032767;28;20202;-68
2021/11/03 11:16:48;;;;;;;0.30;0.10;;;10.40;1.00;;;;;;5033849;28;20201;-68
2021/11/03 11:19:36;;;;;;;2.10;2.00;;;10.50;1.00;;;;;;5036513;28;20212;-68
2021/11/03 11:22:20;;;;;;;1.55;1.45;;;10.30;1.00;;;;;;5017435;28;20244;-70
2021/11/03 11:25:04;;;;;;;1.67;1.63;;;10.40;1.00;;;;;;5033116;28;20794;-69
2021/11/03 11:27:42;;;;;;;0.30;0.30;;;10.40;1.00;;;;;;5036367;28;20630;-68
2021/11/03 11:30:24;;;;;;;0.30;0.20;;;10.70;1.00;;;;;;5036591;28;20185;-67
2021/11/03 11:33:24;;;;;;;1.85;1.75;;;10.80;1.00;;;;;;5020119;28;20184;-68
2021/11/03 11:36:18;;;;;;;0.30;0.20;;;10.70;1.00;;;;;;5036656;28;20192;-68
2021/11/03 11:39:22;;;;;;;5.35;4.95;;;10.90;1.00;;;;;;5036384;28;20216;-68
2021/11/03 11:41:57;;;;;;;1.15;0.68;;;11.00;1.00;;;;;;5036660;28;20235;-69
2021/11/03 11:44:34;;;;;;;0.20;0.10;;;10.90;1.00;;;;;;5036136;28;20215;-70
2021/11/03 11:47:05;;;;;;;0.30;0.22;;;11.30;1.00;;;;;;5036423;28;20253;-69
2021/11/03 11:49:34;;;;;;;0.85;0.85;;;11.70;1.00;;;;;;5036799;28;20512;-69
2021/11/03 11:52:34;;;;;;;0.40;0.40;;;11.80;99.90;;;;;;5036304;28;20185;-69
2021/11/03 11:55:11;;;;;;;2.38;0.95;;;12.00;99.90;;;;;;5036139;28;20177;-67
2021/11/03 11:57:38;;;;;;;0.30;0.20;;;11.90;99.90;;;;;;5035788;28;20200;-68
2021/11/03 12:00:10;;;;;;;0.30;0.20;;;11.90;99.90;;;;;;5034953;28;20669;-68
2021/11/03 12:02:45;;;;;;;0.85;0.85;;;12.10;99.90;;;;;;5031223;28;20220;-69
2021/11/03 12:05:25;;;;;;;0.30;0.20;;;12.00;1.00;;;;;;5035298;28;20609;-68
2021/11/03 12:08:09;;;;;;;1.52;1.42;;;11.90;99.90;;;;;;5017644;28;20178;-68
2021/11/03 12:11:13;;;;;;;0.30;0.10;;;11.70;99.90;;;;;;5015649;28;20178;-68
2021/11/03 12:13:38;;;;;;;0.40;0.40;;;11.10;99.90;;;;;;4997938;28;20198;-68
2021/11/03 12:16:14;;;;;;;1.33;1.33;;;11.10;1.00;;;;;;5015715;28;20270;-67
2021/11/03 12:18:43;;;;;;;0.50;0.47;;;11.30;1.00;;;;;;5030916;28;20212;-68
2021/11/03 12:21:10;;;;;;;0.40;0.40;;;11.70;1.00;;;;;;5035239;28;20261;-68
2021/11/03 12:24:15;;;;;;;1.08;1.02;;;11.60;1.00;;;;;;5035339;28;20619;-69
2021/11/03 12:26:43;;;;;;;0.40;0.40;;;11.40;99.90;;;;;;5035243;28;20189;-68
2021/11/03 12:29:17;;;;;;;0.40;0.40;;;11.70;1.00;;;;;;5034329;28;20688;-68
2021/11/03 12:31:42;;;;;;;1.58;1.17;;;11.80;99.90;;;;;;5034730;28;20181;-70
2021/11/03 12:34:08;;;;;;;1.27;1.23;;;11.60;99.90;;;;;;5035335;28;20178;-70
2021/11/03 12:36:51;;;;;;;2.13;1.90;;;11.50;99.90;;;;;;5017614;28;20268;-70
2021/11/03 12:39:28;;;;;;;1.50;1.48;;;11.30;1.00;;;;;;5034403;28;20657;-69
2021/11/03 12:42:17;;;;;;;0.32;0.28;;;11.20;1.00;;;;;;5035294;28;20239;-69
2021/11/03 12:44:51;;;;;;;2.15;0.85;;;11.10;1.00;;;;;;5017613;28;20213;-70
2021/11/03 12:47:23;;;;;;;0.85;0.85;;;11.30;1.00;;;;;;5035520;28;20475;-68
2021/11/03 12:50:09;;;;;;;1.77;1.70;;;11.40;1.00;;;;;;5035174;28;20611;-68
2021/11/03 12:52:43;;;;;;;0.63;0.63;;;11.50;1.00;;;;;;5017776;28;20276;-67
2021/11/03 12:55:30;;;;;;;0.75;0.75;;;11.40;1.00;;;;;;5035322;28;20227;-68
2021/11/03 12:57:58;;;;;;;0.30;0.20;;;11.40;1.00;;;;;;5035020;28;20185;-69
2021/11/03 13:00:31;;;;;;;0.30;0.20;;;11.50;1.00;;;;;;5034828;28;20248;-67
2021/11/03 13:03:05;;;;;;;2.15;1.95;;;11.80;1.00;;;;;;5035011;28;20185;-67
2021/11/03 13:05:33;;;;;;;0.30;0.20;;;11.60;99.90;;;;;;5035299;28;20164;-68
2021/11/03 13:08:00;;;;;;;0.30;0.20;;;11.70;99.90;;;;;;5034598;28;20236;-68
2021/11/03 13:10:29;;;;;;;0.30;0.20;;;11.90;99.90;;;;;;5034820;28;20235;-68